Time;durP1;ratioP1;P1;durP2;ratioP2;P2;SDS_P1;SDS_P2;PMS_P1;PMS_P2;Temp;Humidity;BMP_temperature;BMP_pressure;BME280_temperature;BME280_humidity;BME280_pressure;Samples;Min_cycle;Max_cycle;Signal;HPM_P1;HPM_P2
2022/03/17 00:02:25;;;;;;;26.20;17.30;;;7.70;99.90;;;;;;5111445;28;20228;-76
2022/03/17 00:04:52;;;;;;;27.50;16.83;;;7.40;1.00;;;;;;5109525;28;20203;-76
2022/03/17 00:07:20;;;;;;;29.97;17.30;;;7.00;1.00;;;;;;5110764;28;20574;-76
2022/03/17 00:09:48;;;;;;;30.33;18.37;;;6.70;1.00;;;;;;5110592;28;20728;-76
2022/03/17 00:12:15;;;;;;;26.33;16.53;;;6.40;99.90;;;;;;5112842;28;20200;-76
2022/03/17 00:14:42;;;;;;;28.00;16.53;;;6.20;1.00;;;;;;5112477;28;20284;-76
2022/03/17 00:17:09;;;;;;;29.83;17.03;;;6.00;1.00;;;;;;5097673;28;20652;-75
2022/03/17 00:19:37;;;;;;;31.77;18.83;;;6.10;1.00;;;;;;5108763;28;20205;-75
2022/03/17 00:22:06;;;;;;;31.30;19.03;;;6.40;1.00;;;;;;5111795;28;20250;-76
2022/03/17 00:24:33;;;;;;;31.67;18.47;;;6.70;99.90;;;;;;5111079;28;20620;-76
2022/03/17 00:27:02;;;;;;;31.37;18.67;;;6.70;99.90;;;;;;5111038;28;20675;-76
2022/03/17 00:29:29;;;;;;;31.30;19.27;;;6.70;99.90;;;;;;5111656;28;20193;-76
2022/03/17 00:31:56;;;;;;;27.33;17.33;;;6.70;99.90;;;;;;5099269;28;20259;-76
2022/03/17 00:34:22;;;;;;;26.80;17.53;;;6.80;99.90;;;;;;5101205;28;20204;-76
2022/03/17 00:36:50;;;;;;;26.90;17.00;;;6.90;1.00;;;;;;5108711;28;20647;-76
2022/03/17 00:39:17;;;;;;;26.93;16.83;;;7.00;1.00;;;;;;5108184;28;20226;-76
2022/03/17 00:41:44;;;;;;;27.33;17.23;;;7.00;1.00;;;;;;5111313;28;20193;-75
2022/03/17 00:44:13;;;;;;;27.87;17.10;;;7.00;1.00;;;;;;5099340;28;20625;-76
2022/03/17 00:46:40;;;;;;;27.43;16.83;;;7.00;1.00;;;;;;5109885;28;20260;-76
2022/03/17 00:49:07;;;;;;;27.23;17.03;;;7.00;1.00;;;;;;5094108;28;20216;-76
2022/03/17 00:51:34;;;;;;;29.43;17.30;;;6.90;1.00;;;;;;5091094;28;20521;-76
2022/03/17 00:54:01;;;;;;;27.03;17.57;;;7.00;1.00;;;;;;5103133;28;20674;-76
2022/03/17 00:56:29;;;;;;;26.60;17.00;;;7.00;1.00;;;;;;5110000;28;20189;-75
2022/03/17 00:58:55;;;;;;;29.30;17.63;;;7.00;1.00;;;;;;5111233;28;20251;-76
2022/03/17 01:01:24;;;;;;;27.00;17.77;;;7.00;1.00;;;;;;5098124;28;20207;-76
2022/03/17 01:03:50;;;;;;;25.67;16.93;;;7.00;1.00;;;;;;5111933;28;20193;-75
2022/03/17 01:06:17;;;;;;;27.73;18.23;;;7.00;1.00;;;;;;5111559;28;20197;-76
2022/03/17 01:08:44;;;;;;;28.30;18.13;;;6.90;1.00;;;;;;5107188;28;20215;-76
2022/03/17 01:11:11;;;;;;;25.57;17.43;;;6.80;12.20;;;;;;5105342;28;20207;-76
2022/03/17 01:13:38;;;;;;;26.17;17.73;;;6.70;99.90;;;;;;5099796;28;20399;-76
2022/03/17 01:16:05;;;;;;;27.53;16.93;;;6.70;99.90;;;;;;5110426;28;20216;-76
2022/03/17 01:18:33;;;;;;;26.73;16.90;;;6.60;99.90;;;;;;5100363;28;20559;-75
2022/03/17 01:21:00;;;;;;;27.83;18.57;;;6.50;99.90;;;;;;5111178;28;20267;-76
2022/03/17 01:23:27;;;;;;;27.73;17.83;;;6.60;99.90;;;;;;5107221;28;20193;-76
2022/03/17 01:25:54;;;;;;;26.57;17.30;;;6.50;99.90;;;;;;5110589;28;20212;-76
2022/03/17 01:28:21;;;;;;;28.23;17.97;;;6.60;99.90;;;;;;5112851;28;20225;-76
2022/03/17 01:30:48;;;;;;;26.93;16.67;;;6.50;99.90;;;;;;5113260;28;20201;-76
2022/03/17 01:33:15;;;;;;;26.53;17.60;;;6.50;99.90;;;;;;5115390;28;20284;-76
2022/03/17 01:35:44;;;;;;;27.10;16.70;;;6.60;99.90;;;;;;5115574;28;20200;-77
2022/03/17 01:38:10;;;;;;;27.13;16.90;;;6.60;99.90;;;;;;5112042;28;20292;-76
2022/03/17 01:40:37;;;;;;;27.93;17.40;;;6.70;74.70;;;;;;5112503;28;20544;-76
2022/03/17 01:43:04;;;;;;;26.57;16.50;;;6.70;17.50;;;;;;5106741;28;20667;-76
2022/03/17 01:45:31;;;;;;;26.97;17.93;;;6.70;1.00;;;;;;5107339;28;20283;-76
2022/03/17 01:47:58;;;;;;;27.63;17.53;;;6.50;99.90;;;;;;5105785;28;20217;-75
2022/03/17 01:50:26;;;;;;;28.87;17.17;;;6.40;99.90;;;;;;5113307;28;20205;-76
2022/03/17 01:52:54;;;;;;;26.47;18.10;;;6.30;1.00;;;;;;5112426;28;20197;-76
2022/03/17 01:55:21;;;;;;;27.07;17.20;;;6.20;1.00;;;;;;5114743;28;20280;-76
2022/03/17 01:57:49;;;;;;;28.00;18.17;;;6.20;1.00;;;;;;5106901;28;20204;-76
2022/03/17 02:00:18;;;;;;;28.97;18.20;;;6.10;1.00;;;;;;5103455;28;20205;-76
2022/03/17 02:02:46;;;;;;;30.03;17.97;;;6.10;1.00;;;;;;5102839;28;20202;-75
2022/03/17 02:05:13;;;;;;;27.10;18.97;;;6.10;1.00;;;;;;5104312;28;20201;-75
2022/03/17 02:07:42;;;;;;;27.80;18.17;;;6.10;1.00;;;;;;5123665;27;20224;-74
2022/03/17 02:10:11;;;;;;;31.17;19.57;;;6.10;1.00;;;;;;5135010;27;20672;-75
2022/03/17 02:15:27;;;;;;;31.27;19.80;;;6.30;1.00;;;;;;5113621;28;20670;-74
2022/03/17 02:17:54;;;;;;;29.90;18.43;;;6.40;1.00;;;;;;5100164;28;20198;-76
2022/03/17 02:20:23;;;;;;;30.27;19.37;;;6.40;1.00;;;;;;5103382;28;20197;-75
2022/03/17 02:22:52;;;;;;;31.70;19.93;;;6.60;1.00;;;;;;5110792;28;20201;-75
2022/03/17 02:25:34;;;;;;;28.63;18.80;;;6.60;1.00;;;;;;5107956;28;20297;-75
2022/03/17 02:28:02;;;;;;;28.70;18.23;;;6.60;1.00;;;;;;5106287;28;20579;-75
2022/03/17 02:30:34;;;;;;;28.23;18.27;;;6.60;1.00;;;;;;5111399;28;20288;-75
2022/03/17 02:33:03;;;;;;;30.43;19.70;;;6.70;1.00;;;;;;5107085;28;20203;-75
2022/03/17 02:35:32;;;;;;;29.73;19.53;;;6.60;1.00;;;;;;5100138;28;20214;-75
2022/03/17 02:38:01;;;;;;;29.70;19.03;;;6.60;1.00;;;;;;5096907;28;20670;-75
2022/03/17 02:40:30;;;;;;;30.70;20.40;;;6.70;1.00;;;;;;5108836;28;20631;-75
2022/03/17 02:42:57;;;;;;;29.73;18.43;;;6.80;99.90;;;;;;5104353;28;20201;-75
2022/03/17 02:45:24;;;;;;;28.50;19.40;;;6.80;99.90;;;;;;5114143;28;20655;-75
2022/03/17 02:47:51;;;;;;;30.77;18.20;;;6.70;99.90;;;;;;5104882;28;20583;-75
2022/03/17 02:50:18;;;;;;;28.67;19.27;;;6.70;99.90;;;;;;5111758;28;20204;-75
2022/03/17 02:52:45;;;;;;;27.97;18.70;;;6.60;99.90;;;;;;5112373;28;20269;-76
2022/03/17 02:55:14;;;;;;;28.07;18.97;;;6.60;1.00;;;;;;5098760;28;20193;-75
2022/03/17 02:57:44;;;;;;;30.13;20.00;;;6.60;99.90;;;;;;5110921;28;20236;-75
2022/03/17 03:00:13;;;;;;;30.43;20.07;;;6.50;1.00;;;;;;5112667;28;20197;-76
2022/03/17 03:02:41;;;;;;;29.33;19.27;;;6.50;1.00;;;;;;5112630;28;20204;-75
2022/03/17 03:05:09;;;;;;;30.73;19.37;;;6.60;1.00;;;;;;5112954;28;20205;-75
2022/03/17 03:07:36;;;;;;;28.73;19.17;;;6.60;1.00;;;;;;5105985;28;20224;-75
2022/03/17 03:10:04;;;;;;;29.53;19.07;;;6.60;1.00;;;;;;5097665;28;20197;-75
2022/03/17 03:12:31;;;;;;;31.00;19.80;;;6.60;1.00;;;;;;5097921;28;20206;-75
2022/03/17 03:14:59;;;;;;;31.43;19.67;;;6.60;1.00;;;;;;5096604;28;20198;-75
2022/03/17 03:17:26;;;;;;;31.90;20.03;;;6.60;1.00;;;;;;5097415;28;20205;-75
2022/03/17 03:19:54;;;;;;;31.90;20.57;;;6.60;1.00;;;;;;5112027;28;20197;-75
2022/03/17 03:22:21;;;;;;;31.20;20.43;;;6.60;1.00;;;;;;5109536;28;20660;-75
2022/03/17 03:24:48;;;;;;;33.07;21.23;;;6.50;1.00;;;;;;5111018;28;20559;-75
2022/03/17 03:27:15;;;;;;;33.67;21.60;;;6.40;1.00;;;;;;5109663;28;20877;-75
2022/03/17 03:29:43;;;;;;;34.50;21.47;;;6.40;1.00;;;;;;5098184;28;20193;-75
2022/03/17 03:32:11;;;;;;;34.03;21.37;;;6.50;1.00;;;;;;5106353;28;20201;-75
2022/03/17 03:34:38;;;;;;;36.17;21.97;;;6.50;1.00;;;;;;5105262;28;20544;-75
2022/03/17 03:39:56;;;;;;;33.97;22.10;;;6.50;1.00;;;;;;5091705;28;20193;-75
2022/03/17 03:42:25;;;;;;;33.57;22.00;;;6.60;1.00;;;;;;5103517;28;20652;-75
2022/03/17 03:44:52;;;;;;;32.60;21.23;;;6.60;1.00;;;;;;5111402;28;20197;-75
2022/03/17 03:47:21;;;;;;;32.67;21.27;;;6.60;1.00;;;;;;5108372;28;20232;-75
2022/03/17 03:49:48;;;;;;;34.13;22.57;;;6.60;1.00;;;;;;5097866;28;20193;-75
2022/03/17 03:52:15;;;;;;;35.50;22.10;;;6.60;1.00;;;;;;5109390;28;20215;-75
2022/03/17 03:54:42;;;;;;;34.30;22.27;;;6.60;1.00;;;;;;5105968;28;20287;-76
2022/03/17 03:57:09;;;;;;;31.87;20.90;;;6.60;1.00;;;;;;5110106;28;20565;-76
2022/03/17 03:59:38;;;;;;;33.37;21.67;;;6.60;1.00;;;;;;5108599;28;20201;-76
2022/03/17 04:02:07;;;;;;;35.13;22.43;;;6.60;1.00;;;;;;5106354;28;20209;-76
2022/03/17 04:04:38;;;;;;;33.77;21.87;;;6.60;1.00;;;;;;5092382;28;20209;-76
2022/03/17 04:07:08;;;;;;;34.43;22.20;;;6.50;1.00;;;;;;5106779;28;20287;-76
2022/03/17 04:09:39;;;;;;;33.47;21.27;;;6.60;1.00;;;;;;5111502;28;20196;-76
2022/03/17 04:12:08;;;;;;;33.47;22.83;;;6.60;1.00;;;;;;5112033;28;20655;-75
2022/03/17 04:14:36;;;;;;;35.57;22.30;;;6.60;1.00;;;;;;5108201;28;20262;-75
2022/03/17 04:17:03;;;;;;;36.23;23.07;;;6.50;1.00;;;;;;5109664;28;20189;-75
2022/03/17 04:19:30;;;;;;;35.23;22.77;;;6.50;1.00;;;;;;5111713;28;20605;-75
2022/03/17 04:21:58;;;;;;;34.07;22.03;;;6.70;1.00;;;;;;5111892;28;20201;-75
2022/03/17 04:24:25;;;;;;;35.07;22.57;;;6.80;1.00;;;;;;5097451;28;20562;-75
2022/03/17 04:26:53;;;;;;;34.03;21.67;;;6.80;1.00;;;;;;5091698;28;20201;-75
2022/03/17 04:29:20;;;;;;;32.53;21.57;;;6.70;1.00;;;;;;5092127;28;20221;-75
2022/03/17 04:31:47;;;;;;;34.27;22.53;;;6.60;1.00;;;;;;5091508;28;20727;-75
2022/03/17 04:34:14;;;;;;;32.07;21.17;;;6.50;1.00;;;;;;5092382;28;20197;-75
2022/03/17 04:36:41;;;;;;;34.80;21.77;;;6.50;1.00;;;;;;5090789;28;20247;-75
2022/03/17 04:39:11;;;;;;;38.70;24.50;;;6.50;1.00;;;;;;5092049;28;20205;-74
2022/03/17 04:41:39;;;;;;;37.90;23.93;;;6.40;1.00;;;;;;5091978;28;20235;-75
2022/03/17 04:44:06;;;;;;;37.90;24.20;;;6.50;1.00;;;;;;5091778;28;20610;-74
2022/03/17 04:46:34;;;;;;;36.80;23.03;;;6.50;1.00;;;;;;5090551;28;20206;-75
2022/03/17 04:49:01;;;;;;;37.07;23.17;;;6.60;1.00;;;;;;5091654;28;20603;-75
2022/03/17 04:51:27;;;;;;;39.20;23.60;;;6.60;1.00;;;;;;5090391;28;20206;-75
2022/03/17 04:53:55;;;;;;;35.20;22.13;;;6.60;1.00;;;;;;5093886;28;20209;-75
2022/03/17 04:56:23;;;;;;;37.97;23.97;;;6.60;1.00;;;;;;5095258;28;20266;-75
2022/03/17 04:58:50;;;;;;;35.63;22.80;;;6.60;1.00;;;;;;5095186;28;20201;-75
2022/03/17 05:01:17;;;;;;;36.50;23.13;;;6.60;1.00;;;;;;5095332;28;20391;-75
2022/03/17 05:03:44;;;;;;;38.10;24.33;;;6.60;1.00;;;;;;5095822;28;20197;-75
2022/03/17 05:06:13;;;;;;;38.80;24.90;;;6.60;1.00;;;;;;5095201;28;20213;-75
2022/03/17 05:08:40;;;;;;;39.67;24.07;;;6.70;1.00;;;;;;5100583;28;20224;-75
2022/03/17 05:11:09;;;;;;;36.97;24.10;;;6.70;1.00;;;;;;5103793;28;20206;-75
2022/03/17 05:13:39;;;;;;;38.43;23.97;;;6.70;1.00;;;;;;5110129;28;20202;-74
2022/03/17 05:16:06;;;;;;;35.27;23.50;;;6.70;1.00;;;;;;5098029;28;20213;-74
2022/03/17 05:18:34;;;;;;;38.87;23.23;;;6.60;1.00;;;;;;5094868;28;20291;-74
2022/03/17 05:21:01;;;;;;;37.43;24.93;;;6.70;1.00;;;;;;5094097;28;20202;-74
2022/03/17 05:23:30;;;;;;;38.40;25.00;;;6.70;1.00;;;;;;5095239;28;20205;-75
2022/03/17 05:25:57;;;;;;;38.97;24.53;;;6.70;1.00;;;;;;5095146;28;20229;-74
2022/03/17 05:28:24;;;;;;;38.67;24.60;;;6.70;1.00;;;;;;5094837;28;20227;-76
2022/03/17 05:30:53;;;;;;;38.90;26.10;;;6.60;1.00;;;;;;5094384;28;20209;-77
2022/03/17 05:33:21;;;;;;;37.20;23.80;;;6.60;1.00;;;;;;5095344;28;20675;-77
2022/03/17 05:35:48;;;;;;;37.10;24.50;;;6.70;1.00;;;;;;5094477;28;20206;-76
2022/03/17 05:38:14;;;;;;;36.47;23.60;;;6.70;1.00;;;;;;5094719;28;20292;-76
2022/03/17 05:40:41;;;;;;;38.43;24.13;;;6.70;1.00;;;;;;5094312;28;20209;-77
2022/03/17 05:43:10;;;;;;;35.57;24.17;;;6.80;1.00;;;;;;5095083;28;20218;-76
2022/03/17 05:45:38;;;;;;;38.37;24.53;;;7.20;1.00;;;;;;5094972;28;20201;-77
2022/03/17 05:48:08;;;;;;;35.73;25.00;;;8.10;1.00;;;;;;5093735;28;20225;-77
2022/03/17 05:50:37;;;;;;;37.53;25.03;;;8.70;50.60;;;;;;5093975;28;20672;-77
2022/03/17 05:53:05;;;;;;;35.83;25.10;;;8.60;1.00;;;;;;5094556;28;20572;-77
2022/03/17 05:55:31;;;;;;;34.90;23.77;;;8.80;1.00;;;;;;5093311;28;20209;-77
2022/03/17 05:57:59;;;;;;;33.23;23.57;;;9.20;1.00;;;;;;5093703;28;20663;-77
2022/03/17 06:00:27;;;;;;;35.93;23.93;;;9.40;1.00;;;;;;5094500;28;20774;-76
2022/03/17 06:02:55;;;;;;;34.53;23.23;;;9.50;99.90;;;;;;5094582;28;20197;-77
2022/03/17 06:05:24;;;;;;;34.10;23.83;;;9.50;99.90;;;;;;5093947;28;20231;-76
2022/03/17 06:07:52;;;;;;;32.73;23.40;;;9.60;99.90;;;;;;5094057;28;20326;-77
2022/03/17 06:10:22;;;;;;;33.43;22.43;;;9.50;99.90;;;;;;5094570;28;20202;-77
2022/03/17 06:12:51;;;;;;;34.60;23.57;;;9.50;99.90;;;;;;5093445;28;20201;-76
2022/03/17 06:15:19;;;;;;;34.60;24.10;;;9.60;99.90;;;;;;5093949;28;20198;-77
2022/03/17 06:17:48;;;;;;;33.07;23.77;;;9.50;99.90;;;;;;5092981;28;20205;-77
2022/03/17 06:20:16;;;;;;;35.93;24.73;;;9.50;99.90;;;;;;5092878;28;20202;-77
2022/03/17 06:22:47;;;;;;;36.30;24.47;;;9.50;1.00;;;;;;5094367;28;20209;-77
2022/03/17 06:25:15;;;;;;;33.27;23.53;;;9.50;99.90;;;;;;5093830;28;20202;-77
2022/03/17 06:27:43;;;;;;;32.90;23.63;;;9.50;99.90;;;;;;5092710;28;20201;-77
2022/03/17 06:30:12;;;;;;;34.40;23.47;;;9.40;1.00;;;;;;5093194;28;20706;-76
2022/03/17 06:32:40;;;;;;;39.07;25.30;;;9.40;1.00;;;;;;5094019;28;20205;-76
2022/03/17 06:35:08;;;;;;;36.27;24.30;;;9.50;99.90;;;;;;5093705;28;20209;-77
2022/03/17 06:37:35;;;;;;;37.50;24.87;;;9.40;99.90;;;;;;5093466;28;20280;-77
2022/03/17 06:40:04;;;;;;;33.10;23.07;;;9.40;99.90;;;;;;5093696;28;20197;-76
2022/03/17 06:42:31;;;;;;;34.33;24.23;;;9.50;99.90;;;;;;5109282;28;20212;-76
2022/03/17 06:44:59;;;;;;;35.50;24.13;;;9.40;1.00;;;;;;5113496;28;20539;-77
2022/03/17 06:47:26;;;;;;;33.70;24.00;;;9.50;99.90;;;;;;5113256;28;20212;-77
2022/03/17 06:49:52;;;;;;;32.83;23.87;;;9.50;1.00;;;;;;5113692;28;20221;-77
2022/03/17 06:52:20;;;;;;;35.20;25.23;;;9.40;1.00;;;;;;5114206;28;20212;-77
2022/03/17 06:54:46;;;;;;;35.33;23.47;;;9.30;1.00;;;;;;5114097;28;20220;-77
2022/03/17 06:57:18;;;;;;;32.50;23.57;;;9.40;1.00;;;;;;5113185;28;20208;-77
2022/03/17 06:59:45;;;;;;;35.43;24.40;;;9.40;1.00;;;;;;5113491;28;20197;-77
2022/03/17 07:02:12;;;;;;;31.70;23.10;;;9.50;1.00;;;;;;5113223;28;20208;-76
2022/03/17 07:04:39;;;;;;;34.17;24.63;;;9.60;99.90;;;;;;5113472;28;20201;-76
2022/03/17 07:07:06;;;;;;;32.90;23.57;;;9.60;99.90;;;;;;5112548;28;20555;-77
2022/03/17 07:09:33;;;;;;;32.03;23.37;;;9.70;99.90;;;;;;5113723;28;20221;-77
2022/03/17 07:12:00;;;;;;;34.77;23.63;;;9.60;1.00;;;;;;5112868;28;20552;-77
2022/03/17 07:14:28;;;;;;;33.40;24.33;;;9.70;99.90;;;;;;5112674;28;20211;-77
2022/03/17 07:16:55;;;;;;;35.60;24.20;;;9.80;1.00;;;;;;5112306;28;20567;-76
2022/03/17 07:19:22;;;;;;;33.70;24.03;;;9.90;1.00;;;;;;5112690;28;20295;-77
2022/03/17 07:21:48;;;;;;;34.93;24.33;;;10.00;1.00;;;;;;5112426;28;20550;-77
2022/03/17 07:24:16;;;;;;;34.60;25.10;;;10.10;1.00;;;;;;5113554;28;20568;-76
2022/03/17 07:26:43;;;;;;;33.93;24.00;;;10.20;1.00;;;;;;5112798;28;20205;-76
2022/03/17 07:29:10;;;;;;;34.47;23.63;;;10.10;1.00;;;;;;5113103;28;20216;-76
2022/03/17 07:31:38;;;;;;;34.23;23.80;;;10.20;1.00;;;;;;5112313;28;20205;-76
2022/03/17 07:34:05;;;;;;;35.03;24.17;;;10.10;1.00;;;;;;5112450;28;20205;-76
2022/03/17 07:36:32;;;;;;;32.77;23.93;;;10.10;1.00;;;;;;5112485;28;20205;-77
2022/03/17 07:39:01;;;;;;;32.67;24.17;;;10.20;99.90;;;;;;5112752;28;20554;-76
2022/03/17 07:41:28;;;;;;;34.17;24.87;;;10.20;99.90;;;;;;5112587;28;20188;-77
2022/03/17 07:43:55;;;;;;;33.33;24.10;;;10.20;1.00;;;;;;5112660;28;20243;-77
2022/03/17 07:46:22;;;;;;;33.80;24.57;;;10.20;1.00;;;;;;5112178;28;20295;-76
2022/03/17 07:48:50;;;;;;;33.20;24.07;;;10.30;1.00;;;;;;5111815;28;20402;-76
2022/03/17 07:51:17;;;;;;;35.27;25.13;;;10.20;1.00;;;;;;5112000;28;20536;-77
2022/03/17 07:53:44;;;;;;;36.00;25.57;;;10.30;1.00;;;;;;5112107;28;20211;-76
2022/03/17 07:56:12;;;;;;;33.33;24.73;;;10.30;1.00;;;;;;5112253;28;20201;-76
2022/03/17 07:58:40;;;;;;;33.50;24.17;;;10.40;1.00;;;;;;5112707;28;20209;-77
2022/03/17 08:01:07;;;;;;;34.30;24.90;;;10.40;1.00;;;;;;5111953;28;20212;-76
2022/03/17 08:03:34;;;;;;;33.67;23.93;;;10.40;1.00;;;;;;5112892;28;20197;-76
2022/03/17 08:06:05;;;;;;;32.70;23.97;;;10.40;1.00;;;;;;5112193;28;20197;-77
2022/03/17 08:08:32;;;;;;;33.63;24.67;;;10.40;1.00;;;;;;5111721;28;20393;-77
2022/03/17 08:10:59;;;;;;;34.80;24.87;;;10.40;1.00;;;;;;5112736;28;20232;-77
2022/03/17 08:13:26;;;;;;;34.30;24.43;;;10.40;1.00;;;;;;5112998;28;20208;-77
2022/03/17 08:15:54;;;;;;;32.90;23.53;;;10.40;1.00;;;;;;5111893;28;20559;-76
2022/03/17 08:18:21;;;;;;;32.33;24.00;;;10.40;1.00;;;;;;5111333;28;20208;-77
2022/03/17 08:20:48;;;;;;;33.03;23.63;;;10.50;1.00;;;;;;5111616;28;20555;-76
2022/03/17 08:23:21;;;;;;;35.93;24.93;;;10.50;99.90;;;;;;5112131;28;20914;-76
2022/03/17 08:25:49;;;;;;;35.60;23.73;;;10.50;99.90;;;;;;5112073;28;20710;-76
2022/03/17 08:28:18;;;;;;;32.93;24.53;;;10.50;99.90;;;;;;5111992;28;20204;-76
2022/03/17 08:30:46;;;;;;;32.27;23.80;;;10.50;99.90;;;;;;5115397;28;20231;-76
2022/03/17 08:33:14;;;;;;;32.70;23.73;;;10.50;99.90;;;;;;5116571;28;20204;-76
2022/03/17 08:35:41;;;;;;;34.43;24.03;;;10.50;99.90;;;;;;5116125;28;20699;-76
2022/03/17 08:38:08;;;;;;;33.50;22.87;;;10.50;99.90;;;;;;5116311;28;20207;-76
2022/03/17 08:40:38;;;;;;;35.23;24.13;;;10.40;99.90;;;;;;5115401;28;20201;-76
2022/03/17 08:43:06;;;;;;;35.27;24.03;;;10.40;99.90;;;;;;5115702;28;20261;-77
2022/03/17 08:51:01;;;;;;;35.57;24.63;;;10.40;1.00;;;;;;5115197;28;20254;-76
2022/03/17 08:53:28;;;;;;;31.97;22.77;;;10.40;1.00;;;;;;5115983;28;20209;-75
2022/03/17 08:55:57;;;;;;;33.63;24.03;;;10.40;99.90;;;;;;5115716;28;20307;-74
2022/03/17 08:58:24;;;;;;;33.07;22.87;;;10.40;99.90;;;;;;5115060;28;20209;-74
2022/03/17 09:00:54;;;;;;;31.33;23.03;;;10.50;99.90;;;;;;5114609;28;20211;-74
2022/03/17 09:03:21;;;;;;;32.17;23.07;;;10.40;99.90;;;;;;5115320;28;20652;-74
2022/03/17 09:05:48;;;;;;;32.17;22.87;;;10.40;99.90;;;;;;5115652;28;20673;-74
2022/03/17 09:08:15;;;;;;;33.40;24.30;;;10.40;99.90;;;;;;5115244;28;20211;-74
2022/03/17 09:10:41;;;;;;;34.70;25.20;;;10.40;99.90;;;;;;5108671;28;20227;-74
2022/03/17 09:13:10;;;;;;;33.90;24.10;;;10.50;99.90;;;;;;5102767;28;20241;-74
2022/03/17 09:15:38;;;;;;;31.93;23.43;;;10.40;1.00;;;;;;5096010;28;20201;-75
2022/03/17 09:18:07;;;;;;;36.10;23.57;;;10.30;1.00;;;;;;5096167;28;20296;-74
2022/03/17 09:20:35;;;;;;;34.37;24.17;;;10.30;1.00;;;;;;5115671;28;20250;-75
2022/03/17 09:23:02;;;;;;;34.73;24.47;;;10.30;1.00;;;;;;5109716;28;20201;-74
2022/03/17 09:25:33;;;;;;;31.07;23.60;;;10.30;1.00;;;;;;5105766;28;20672;-74
2022/03/17 09:28:00;;;;;;;34.27;23.87;;;10.20;1.00;;;;;;5093827;28;20209;-74
2022/03/17 09:30:29;;;;;;;32.87;24.30;;;10.20;1.00;;;;;;5095190;28;20233;-74
2022/03/17 09:32:56;;;;;;;34.23;25.03;;;10.20;47.90;;;;;;5094926;28;20205;-74
2022/03/17 09:35:23;;;;;;;34.60;24.83;;;10.20;1.00;;;;;;5095871;28;20546;-74
2022/03/17 09:37:50;;;;;;;35.50;24.43;;;10.10;99.90;;;;;;5115190;28;20557;-74
2022/03/17 09:40:18;;;;;;;34.70;25.70;;;10.10;99.90;;;;;;5115729;28;20701;-74
2022/03/17 09:42:45;;;;;;;33.67;25.03;;;10.10;1.00;;;;;;5115624;28;20997;-75
2022/03/17 09:45:12;;;;;;;36.33;26.17;;;10.00;99.90;;;;;;5115504;28;20201;-75
2022/03/17 09:47:44;;;;;;;34.80;25.00;;;9.90;1.00;;;;;;5115301;28;20363;-75
2022/03/17 09:50:14;;;;;;;37.60;27.20;;;9.80;1.00;;;;;;5115492;28;20229;-75
2022/03/17 09:52:44;;;;;;;35.47;26.60;;;9.70;1.00;;;;;;5115301;28;20211;-75
2022/03/17 09:55:12;;;;;;;37.90;25.80;;;9.50;1.00;;;;;;5115362;28;20698;-75
2022/03/17 09:57:41;;;;;;;36.50;27.30;;;9.40;1.00;;;;;;5115052;28;20224;-75
2022/03/17 10:00:11;;;;;;;41.07;26.73;;;9.50;1.00;;;;;;5115380;28;20247;-75
2022/03/17 10:02:40;;;;;;;36.03;27.40;;;9.40;99.90;;;;;;5115123;28;20201;-75
2022/03/17 10:05:11;;;;;;;37.47;26.20;;;9.40;1.00;;;;;;5115228;28;20697;-75
2022/03/17 10:07:39;;;;;;;39.40;27.53;;;9.40;1.00;;;;;;5115112;28;20207;-75
2022/03/17 10:10:07;;;;;;;37.50;25.80;;;9.40;99.90;;;;;;5115192;28;20221;-75
2022/03/17 10:12:34;;;;;;;37.43;27.80;;;9.40;99.90;;;;;;5115182;28;20647;-76
2022/03/17 10:15:01;;;;;;;37.97;26.83;;;9.40;1.00;;;;;;5114919;28;20213;-76
2022/03/17 10:17:30;;;;;;;39.50;28.03;;;9.30;1.00;;;;;;5114455;28;20204;-77
2022/03/17 10:20:16;;;;;;;41.53;27.93;;;9.20;1.00;;;;;;5114752;28;20200;-77
2022/03/17 10:22:45;;;;;;;40.33;27.63;;;9.30;1.00;;;;;;5114894;28;20557;-77
2022/03/17 10:25:17;;;;;;;40.63;29.20;;;9.20;1.00;;;;;;5115043;28;20211;-77
2022/03/17 10:27:46;;;;;;;40.60;28.80;;;9.20;1.00;;;;;;5114296;28;20204;-77
2022/03/17 10:30:13;;;;;;;40.30;28.63;;;9.10;1.00;;;;;;5114565;28;20221;-77
2022/03/17 10:32:53;;;;;;;40.97;29.20;;;9.10;1.00;;;;;;5114409;28;20651;-77
2022/03/17 10:35:26;;;;;;;39.70;28.63;;;9.10;1.00;;;;;;5114847;28;20200;-77
2022/03/17 10:37:53;;;;;;;39.67;28.10;;;9.10;1.00;;;;;;5114378;28;20196;-77
2022/03/17 10:40:19;;;;;;;42.17;29.37;;;9.00;1.00;;;;;;5114567;28;20292;-78
2022/03/17 10:42:46;;;;;;;41.40;30.00;;;9.00;22.70;;;;;;5114309;28;20667;-78
2022/03/17 10:45:13;;;;;;;39.47;28.50;;;8.90;77.60;;;;;;5114399;28;20211;-78
2022/03/17 10:47:42;;;;;;;45.27;30.47;;;9.00;99.90;;;;;;5114031;28;20208;-78
2022/03/17 10:50:11;;;;;;;47.37;31.33;;;9.00;99.90;;;;;;5114039;28;20225;-78
2022/03/17 10:52:49;;;;;;;44.57;31.40;;;9.00;99.90;;;;;;5113543;28;20291;-78
2022/03/17 10:55:21;;;;;;;42.20;30.43;;;9.00;99.90;;;;;;5114273;28;20658;-78
2022/03/17 10:57:48;;;;;;;41.87;30.03;;;8.90;99.90;;;;;;5113650;28;20212;-78
2022/03/17 11:00:24;;;;;;;44.43;31.87;;;9.00;99.90;;;;;;5114205;28;20731;-78
2022/03/17 11:02:56;;;;;;;46.37;32.03;;;8.90;99.90;;;;;;5114197;28;20718;-78
2022/03/17 11:05:23;;;;;;;45.03;31.33;;;8.90;99.90;;;;;;5114115;28;20205;-78
2022/03/17 11:07:54;;;;;;;43.43;31.40;;;8.90;99.90;;;;;;5113569;28;20200;-78
2022/03/17 11:10:22;;;;;;;47.13;33.50;;;8.90;99.90;;;;;;5110691;28;20695;-78
2022/03/17 11:12:50;;;;;;;47.40;32.97;;;8.80;99.90;;;;;;5109791;28;20580;-78
2022/03/17 11:15:27;;;;;;;48.00;34.20;;;8.80;99.90;;;;;;5092415;28;20206;-78
2022/03/17 11:17:59;;;;;;;44.60;31.90;;;8.90;99.90;;;;;;5101006;28;20197;-78
2022/03/17 11:20:26;;;;;;;43.33;31.57;;;8.90;99.90;;;;;;5092131;28;20593;-78
2022/03/17 11:23:19;;;;;;;40.30;28.93;;;8.90;99.90;;;;;;5092194;28;20232;-78
2022/03/17 11:25:52;;;;;;;31.77;21.97;;;8.90;99.90;;;;;;5095830;28;20652;-78
2022/03/17 11:28:20;;;;;;;28.87;18.30;;;8.80;99.90;;;;;;5111636;28;20216;-78
2022/03/17 11:30:49;;;;;;;24.70;16.07;;;8.80;99.90;;;;;;5112948;28;20213;-78
2022/03/17 11:33:24;;;;;;;20.90;13.73;;;8.80;99.90;;;;;;5101556;28;20296;-77
2022/03/17 11:35:55;;;;;;;17.47;11.50;;;8.80;99.90;;;;;;5111605;28;20192;-77
2022/03/17 11:38:27;;;;;;;14.40;10.07;;;8.70;99.90;;;;;;5099170;28;20568;-78
2022/03/17 11:41:06;;;;;;;15.17;10.00;;;8.70;99.90;;;;;;5092083;28;20197;-77
2022/03/17 11:43:40;;;;;;;15.80;9.80;;;8.60;99.90;;;;;;5092850;28;20225;-77
2022/03/17 11:46:11;;;;;;;14.47;9.60;;;8.70;99.90;;;;;;5093090;28;20205;-78
2022/03/17 11:48:38;;;;;;;15.90;10.30;;;8.70;99.90;;;;;;5091162;28;20560;-77
2022/03/17 11:51:06;;;;;;;14.30;10.20;;;8.70;99.90;;;;;;5091858;28;20691;-77
2022/03/17 11:53:47;;;;;;;15.83;10.50;;;8.60;99.90;;;;;;5091679;28;20615;-77
2022/03/17 11:56:29;;;;;;;14.33;9.53;;;8.60;99.90;;;;;;5092720;28;20652;-77
2022/03/17 11:58:55;;;;;;;17.90;11.20;;;8.60;99.90;;;;;;5091610;28;20208;-77
2022/03/17 12:01:29;;;;;;;17.70;11.00;;;8.60;99.90;;;;;;5091332;28;20197;-78
2022/03/17 12:03:58;;;;;;;14.93;10.27;;;8.60;99.90;;;;;;5091793;28;20210;-78
2022/03/17 12:06:26;;;;;;;16.53;9.70;;;8.50;99.90;;;;;;5100701;28;20207;-77
2022/03/17 12:08:59;;;;;;;16.97;10.63;;;8.50;99.90;;;;;;5101855;28;20223;-77
2022/03/17 12:11:28;;;;;;;13.70;9.20;;;8.50;99.90;;;;;;5102958;28;20220;-77
2022/03/17 12:14:18;;;;;;;16.20;10.27;;;8.50;99.90;;;;;;5103277;28;20197;-77
2022/03/17 12:16:47;;;;;;;17.20;9.67;;;8.40;99.90;;;;;;5101496;28;20291;-77
2022/03/17 12:19:34;;;;;;;15.63;9.93;;;8.50;99.90;;;;;;5098854;28;20202;-77
2022/03/17 12:22:19;;;;;;;14.87;9.33;;;8.50;99.90;;;;;;5102740;28;20255;-72
2022/03/17 12:24:49;;;;;;;17.00;9.50;;;8.40;99.90;;;;;;5102771;28;20206;-72
2022/03/17 12:27:28;;;;;;;14.57;9.03;;;8.50;99.90;;;;;;5105994;28;20211;-74
2022/03/17 12:30:00;;;;;;;13.57;8.27;;;8.40;99.90;;;;;;5098952;28;20197;-74
2022/03/17 12:32:28;;;;;;;14.20;8.77;;;8.50;99.90;;;;;;5099775;28;20201;-75
2022/03/17 12:34:57;;;;;;;10.47;7.13;;;8.50;99.90;;;;;;5101710;28;20196;-75
2022/03/17 12:37:25;;;;;;;11.27;8.13;;;8.50;99.90;;;;;;5104929;28;20576;-75
2022/03/17 12:39:55;;;;;;;14.37;8.23;;;8.60;99.90;;;;;;5105985;28;20544;-75
2022/03/17 12:42:23;;;;;;;15.83;9.27;;;8.60;99.90;;;;;;5101782;28;20683;-74
2022/03/17 12:44:57;;;;;;;14.80;8.00;;;8.80;99.90;;;;;;5109706;28;20308;-75
2022/03/17 12:47:25;;;;;;;14.10;7.80;;;9.00;99.90;;;;;;5098422;28;20209;-75
2022/03/17 12:49:54;;;;;;;17.37;8.40;;;9.10;99.90;;;;;;5105308;28;20687;-75
2022/03/17 12:52:24;;;;;;;15.07;7.80;;;9.10;99.90;;;;;;5102266;28;20211;-75
2022/03/17 12:54:54;;;;;;;13.30;7.87;;;9.20;99.90;;;;;;5099482;28;20208;-75
2022/03/17 12:57:22;;;;;;;10.70;7.00;;;9.20;99.90;;;;;;5098793;28;20245;-75
2022/03/17 12:59:49;;;;;;;14.47;6.93;;;9.30;99.90;;;;;;5104099;28;20235;-75